createdAt,value
2023-05-21T00:02:15.446Z,55.45
2023-05-21T00:04:46.306Z,55.44
2023-05-21T00:07:17.225Z,55.44
2023-05-21T00:09:48.027Z,55.53
2023-05-21T00:12:18.913Z,55.52
2023-05-21T00:14:49.738Z,55.44
2023-05-21T00:17:20.517Z,55.51
2023-05-21T00:19:51.965Z,55.51
2023-05-21T00:22:22.767Z,55.49
2023-05-21T00:24:53.598Z,55.56
2023-05-21T00:27:24.342Z,55.50
2023-05-21T00:29:55.115Z,55.55
2023-05-21T00:32:26.385Z,55.63
2023-05-21T00:34:58.359Z,55.64
2023-05-21T00:37:29.955Z,55.58
2023-05-21T00:40:02.421Z,55.57
2023-05-21T00:42:34.201Z,55.70
2023-05-21T00:45:05.152Z,55.68
2023-05-21T00:47:36.399Z,55.71
2023-05-21T00:50:10.457Z,55.75
2023-05-21T00:52:42.796Z,55.73
2023-05-21T00:55:13.817Z,55.72
2023-05-21T00:57:46.185Z,55.74
2023-05-21T01:00:17.633Z,55.76
2023-05-21T01:02:48.808Z,55.77
2023-05-21T01:05:20.140Z,55.69
2023-05-21T01:07:52.004Z,55.80
2023-05-21T01:10:23.019Z,55.81
2023-05-21T01:12:57.582Z,55.79
2023-05-21T01:15:28.634Z,55.74
2023-05-21T01:18:00.751Z,55.87
2023-05-21T01:20:32.142Z,55.81
2023-05-21T01:23:04.150Z,55.83
2023-05-21T01:25:36.275Z,55.86
2023-05-21T01:28:07.761Z,55.93
2023-05-21T01:30:40.802Z,55.76
2023-05-21T01:33:14.352Z,55.85
2023-05-21T01:35:49.103Z,55.84
2023-05-21T01:38:24.010Z,55.73
2023-05-21T01:40:58.885Z,55.85
2023-05-21T01:43:30.680Z,56.00
2023-05-21T01:46:03.148Z,55.91
2023-05-21T01:48:35.561Z,55.86
2023-05-21T01:51:07.296Z,55.87
2023-05-21T01:53:40.856Z,55.96
2023-05-21T01:56:12.821Z,55.94
2023-05-21T01:58:44.157Z,55.86
2023-05-21T02:01:15.186Z,55.95
2023-05-21T02:03:46.108Z,56.03
2023-05-21T02:06:17.012Z,56.10
2023-05-21T02:08:48.544Z,56.00
2023-05-21T02:11:19.386Z,55.96
2023-05-21T02:13:50.215Z,56.06
2023-05-21T02:16:22.940Z,56.08
2023-05-21T02:18:54.573Z,56.08
2023-05-21T02:21:25.491Z,56.13
2023-05-21T02:23:56.350Z,56.09
2023-05-21T02:26:27.215Z,56.06
2023-05-21T02:28:58.020Z,56.01
2023-05-21T02:31:28.886Z,55.96
2023-05-21T02:33:59.706Z,55.87
2023-05-21T02:36:33.422Z,56.00
2023-05-21T02:39:04.499Z,56.04
2023-05-21T02:41:35.351Z,56.04
2023-05-21T02:44:06.304Z,56.06
2023-05-21T02:46:37.138Z,56.15
2023-05-21T02:49:08.094Z,56.10
2023-05-21T02:51:39.028Z,56.20
2023-05-21T02:54:09.842Z,56.13
2023-05-21T02:56:40.646Z,56.18
2023-05-21T02:59:11.699Z,56.14
2023-05-21T03:01:45.161Z,56.04
2023-05-21T03:04:17.375Z,56.20
2023-05-21T03:06:48.288Z,56.17
2023-05-21T03:09:19.077Z,56.36
2023-05-21T03:11:49.972Z,56.27
2023-05-21T03:14:20.830Z,56.23
2023-05-21T03:16:51.748Z,56.16
2023-05-21T03:19:22.749Z,56.30
2023-05-21T03:21:54.797Z,56.32
2023-05-21T03:24:26.446Z,56.29
2023-05-21T03:26:57.381Z,56.26
2023-05-21T03:29:28.713Z,56.15
2023-05-21T03:31:59.897Z,56.32
2023-05-21T03:34:31.357Z,56.30
2023-05-21T03:37:02.676Z,56.33
2023-05-21T03:39:33.657Z,56.36
2023-05-21T03:42:04.419Z,56.33
2023-05-21T03:44:41.461Z,56.43
2023-05-21T03:47:31.069Z,56.42
2023-05-21T03:50:02.660Z,56.26
2023-05-21T03:52:33.479Z,56.28
2023-05-21T03:55:04.681Z,56.38
2023-05-21T03:57:35.565Z,56.38
2023-05-21T04:00:09.134Z,56.47
2023-05-21T04:02:47.137Z,56.47
2023-05-21T04:05:20.451Z,56.50
2023-05-21T04:07:51.376Z,56.37
2023-05-21T04:10:23.197Z,56.51
2023-05-21T04:12:54.034Z,56.54
2023-05-21T04:15:24.934Z,56.50
2023-05-21T04:17:55.858Z,56.54
2023-05-21T04:20:26.781Z,56.63
2023-05-21T04:22:57.718Z,56.51
2023-05-21T04:25:28.526Z,56.54
2023-05-21T04:27:59.410Z,56.69
2023-05-21T04:30:31.400Z,56.52
2023-05-21T04:33:02.333Z,56.58
2023-05-21T04:35:33.276Z,56.73
2023-05-21T04:38:05.727Z,56.70
2023-05-21T04:40:37.044Z,56.73
2023-05-21T04:43:08.304Z,56.50
2023-05-21T04:45:39.208Z,56.65
2023-05-21T04:48:10.195Z,56.66
2023-05-21T04:50:41.696Z,56.68
2023-05-21T04:53:12.559Z,56.61
2023-05-21T04:55:43.450Z,56.63
2023-05-21T04:58:14.812Z,56.67
2023-05-21T05:00:46.259Z,56.67
2023-05-21T05:03:17.251Z,56.73
2023-05-21T05:05:48.431Z,56.67
2023-05-21T05:08:19.203Z,56.72
2023-05-21T05:10:51.028Z,56.69
2023-05-21T05:13:21.940Z,56.73
2023-05-21T05:15:54.861Z,56.80
2023-05-21T05:18:25.925Z,56.69
2023-05-21T05:20:56.828Z,56.57
2023-05-21T05:23:28.267Z,56.62
2023-05-21T05:25:59.110Z,56.65
2023-05-21T05:28:31.349Z,56.63
2023-05-21T05:31:03.188Z,56.65
2023-05-21T05:33:34.224Z,56.57
2023-05-21T05:36:05.351Z,56.60
2023-05-21T05:38:36.402Z,56.44
2023-05-21T05:41:07.520Z,56.42
2023-05-21T05:43:38.436Z,56.37
2023-05-21T05:46:09.362Z,56.42
2023-05-21T05:48:40.170Z,56.36
2023-05-21T05:51:12.089Z,56.25
2023-05-21T05:53:42.927Z,56.26
2023-05-21T05:56:16.266Z,56.20
2023-05-21T05:58:47.063Z,56.18
2023-05-21T06:01:19.911Z,56.03
2023-05-21T06:03:50.803Z,56.00
2023-05-21T06:06:22.359Z,55.87
2023-05-21T06:08:53.723Z,55.81
2023-05-21T06:11:24.533Z,55.96
2023-05-21T06:13:56.829Z,55.85
2023-05-21T06:16:27.719Z,55.75
2023-05-21T06:18:58.669Z,55.76
2023-05-21T06:21:29.703Z,55.79
2023-05-21T06:24:00.837Z,55.66
2023-05-21T06:26:32.515Z,55.48
2023-05-21T06:29:04.314Z,55.46
2023-05-21T06:31:35.642Z,55.33
2023-05-21T06:34:06.583Z,55.27
2023-05-21T06:36:37.468Z,55.44
2023-05-21T06:39:08.470Z,55.18
2023-05-21T06:41:39.913Z,55.15
2023-05-21T06:44:27.363Z,54.99
2023-05-21T06:47:15.466Z,55.12
2023-05-21T06:49:47.449Z,54.93
2023-05-21T06:52:18.330Z,54.70
2023-05-21T06:54:49.087Z,54.49
2023-05-21T06:57:20.052Z,54.48
2023-05-21T06:59:50.811Z,54.62
2023-05-21T07:02:21.712Z,54.67
2023-05-21T07:04:53.768Z,54.24
2023-05-21T07:07:24.626Z,54.30
2023-05-21T07:09:55.596Z,54.31
2023-05-21T07:12:26.485Z,53.93
2023-05-21T07:14:59.273Z,54.13
2023-05-21T07:17:30.741Z,53.94
2023-05-21T07:20:01.670Z,53.83
2023-05-21T07:22:34.174Z,53.72
2023-05-21T07:25:05.253Z,53.49
2023-05-21T07:27:36.265Z,53.52
2023-05-21T07:30:09.000Z,52.73
2023-05-21T07:32:39.939Z,52.48
2023-05-21T07:35:11.102Z,53.03
2023-05-21T07:37:42.083Z,53.02
2023-05-21T07:40:14.356Z,53.02
2023-05-21T07:42:45.981Z,52.85
2023-05-21T07:45:17.120Z,52.77
2023-05-21T07:47:48.196Z,52.61
2023-05-21T07:50:20.326Z,52.55
2023-05-21T07:52:51.574Z,52.26
2023-05-21T07:55:23.340Z,52.39
2023-05-21T07:57:54.384Z,52.02
2023-05-21T08:00:30.568Z,52.08
2023-05-21T08:03:02.686Z,52.09
2023-05-21T08:05:33.775Z,51.68
2023-05-21T08:08:05.813Z,51.22
2023-05-21T08:10:37.256Z,51.39
2023-05-21T08:13:08.172Z,50.87
2023-05-21T08:15:39.170Z,51.12
2023-05-21T08:18:12.090Z,50.53
2023-05-21T08:20:42.839Z,50.78
2023-05-21T08:23:13.898Z,50.79
2023-05-21T08:25:49.750Z,50.74
2023-05-21T08:28:21.116Z,50.48
2023-05-21T08:30:51.871Z,50.76
2023-05-21T08:33:22.810Z,50.33
2023-05-21T08:35:53.524Z,48.72
2023-05-21T08:38:32.090Z,49.22
2023-05-21T08:41:29.778Z,49.64
2023-05-21T08:44:02.978Z,49.82
2023-05-21T08:46:34.581Z,48.39
2023-05-21T08:49:05.450Z,49.19
2023-05-21T08:51:36.662Z,49.11
2023-05-21T08:54:09.154Z,49.13
2023-05-21T08:56:47.175Z,49.03
2023-05-21T08:59:21.751Z,48.84
2023-05-21T09:01:53.271Z,48.48
2023-05-21T09:04:28.909Z,48.06
2023-05-21T09:07:02.952Z,48.51
2023-05-21T09:10:10.099Z,48.00
2023-05-21T09:12:41.421Z,47.91
2023-05-21T09:15:14.319Z,47.44
2023-05-21T09:17:47.687Z,47.22
2023-05-21T09:20:50.973Z,47.34
2023-05-21T09:23:22.522Z,47.15
2023-05-21T09:25:53.871Z,47.14
2023-05-21T09:28:31.803Z,47.24
2023-05-21T09:31:04.433Z,47.30
2023-05-21T09:33:35.252Z,47.31
2023-05-21T09:36:08.905Z,46.84
2023-05-21T09:38:39.826Z,47.04
2023-05-21T09:41:10.910Z,46.76
2023-05-21T09:43:44.932Z,46.48
2023-05-21T09:46:17.146Z,43.63
2023-05-21T09:48:48.369Z,45.17
2023-05-21T09:51:22.122Z,45.89
2023-05-21T09:53:54.390Z,45.95
2023-05-21T09:56:25.984Z,45.86
2023-05-21T09:58:57.801Z,45.59
2023-05-21T10:01:28.978Z,45.69
2023-05-21T10:04:00.367Z,45.61
2023-05-21T10:06:32.349Z,45.17
2023-05-21T10:09:05.629Z,44.97
2023-05-21T10:11:37.757Z,44.98
2023-05-21T10:14:10.604Z,44.89
2023-05-21T10:16:42.003Z,44.97
2023-05-21T10:19:13.401Z,44.88
2023-05-21T10:21:45.008Z,45.00
2023-05-21T10:24:16.608Z,44.55
2023-05-21T10:26:48.048Z,44.35
2023-05-21T10:29:19.826Z,44.49
2023-05-21T10:31:51.162Z,44.21
2023-05-21T10:34:24.590Z,44.17
2023-05-21T10:36:58.091Z,43.89
2023-05-21T10:39:30.140Z,43.74
2023-05-21T10:42:04.987Z,43.62
2023-05-21T10:44:42.032Z,43.46
2023-05-21T10:47:32.923Z,43.08
2023-05-21T10:50:17.110Z,43.54
2023-05-21T10:52:57.225Z,43.40
2023-05-21T10:55:36.261Z,42.66
2023-05-21T10:58:23.761Z,42.98
2023-05-21T11:00:55.934Z,43.02
2023-05-21T11:03:27.173Z,42.97
2023-05-21T11:05:58.561Z,42.96
2023-05-21T11:08:31.727Z,42.72
2023-05-21T11:11:03.336Z,42.70
2023-05-21T11:13:48.944Z,42.51
2023-05-21T11:16:22.690Z,42.55
2023-05-21T11:19:00.288Z,42.17
2023-05-21T11:21:32.115Z,42.27
2023-05-21T11:24:04.258Z,42.19
2023-05-21T11:26:48.579Z,42.03
2023-05-21T11:29:19.428Z,41.99
2023-05-21T11:32:01.643Z,41.94
2023-05-21T11:34:40.197Z,41.98
2023-05-21T11:37:41.852Z,41.72
2023-05-21T11:40:20.073Z,41.66
2023-05-21T11:42:53.132Z,41.57
2023-05-21T11:45:24.878Z,41.55
2023-05-21T11:47:56.313Z,41.66
2023-05-21T11:50:30.696Z,41.23
2023-05-21T11:53:02.053Z,38.93
2023-05-21T11:55:33.312Z,40.80
2023-05-21T11:58:04.422Z,40.84
2023-05-21T12:00:39.606Z,40.78
2023-05-21T12:03:15.076Z,40.56
2023-05-21T12:05:49.790Z,40.17
2023-05-21T12:08:25.582Z,39.98
2023-05-21T12:10:59.950Z,40.17
2023-05-21T12:13:32.230Z,39.90
2023-05-21T12:16:05.892Z,40.13
2023-05-21T12:18:38.597Z,40.13
2023-05-21T12:21:11.786Z,39.77
2023-05-21T12:23:43.472Z,39.98
2023-05-21T12:26:15.132Z,39.97
2023-05-21T12:28:46.066Z,40.02
2023-05-21T12:31:17.681Z,39.58
2023-05-21T12:33:50.547Z,38.28
2023-05-21T12:36:27.625Z,39.44
2023-05-21T12:38:59.002Z,39.50
2023-05-21T12:41:30.861Z,39.00
2023-05-21T12:44:01.863Z,39.07
2023-05-21T12:46:32.969Z,39.12
2023-05-21T12:49:04.374Z,39.16
2023-05-21T12:51:41.287Z,38.88
2023-05-21T12:54:14.561Z,38.61
2023-05-21T12:56:48.262Z,37.77
2023-05-21T12:59:19.031Z,38.46
2023-05-21T13:01:50.086Z,38.46
2023-05-21T13:04:22.457Z,38.49
2023-05-21T13:06:53.386Z,38.33
2023-05-21T13:09:24.124Z,38.35
2023-05-21T13:11:55.111Z,38.32
2023-05-21T13:14:25.892Z,38.37
2023-05-21T13:16:57.391Z,38.21
2023-05-21T13:19:28.444Z,37.75
2023-05-21T13:22:00.203Z,36.92
2023-05-21T13:24:31.028Z,37.75
2023-05-21T13:27:01.806Z,37.92
2023-05-21T13:29:32.597Z,37.51
2023-05-21T13:32:03.611Z,37.00
2023-05-21T13:34:34.431Z,37.30
2023-05-21T13:37:05.149Z,37.48
2023-05-21T13:39:35.929Z,37.52
2023-05-21T13:42:07.136Z,37.50
2023-05-21T13:44:37.902Z,36.88
2023-05-21T13:47:10.447Z,36.77
2023-05-21T13:49:41.437Z,37.13
2023-05-21T13:52:12.826Z,37.10
2023-05-21T13:54:43.762Z,37.08
2023-05-21T13:57:14.631Z,37.29
2023-05-21T13:59:45.575Z,37.34
2023-05-21T14:02:16.377Z,36.69
2023-05-21T14:04:47.304Z,36.68
2023-05-21T14:07:18.153Z,36.48
2023-05-21T14:09:49.091Z,36.51
2023-05-21T14:12:20.685Z,36.64
2023-05-21T14:14:51.804Z,36.43
2023-05-21T14:17:22.530Z,36.48
2023-05-21T14:19:53.217Z,36.44
2023-05-21T14:22:24.007Z,36.67
2023-05-21T14:24:54.779Z,36.21
2023-05-21T14:27:25.574Z,36.03
2023-05-21T14:29:56.406Z,36.41
2023-05-21T14:32:27.314Z,36.39
2023-05-21T14:34:59.523Z,36.14
2023-05-21T14:37:30.310Z,35.96
2023-05-21T14:40:01.199Z,35.61
2023-05-21T14:42:32.202Z,35.83
2023-05-21T14:45:17.566Z,35.79
2023-05-21T14:47:49.779Z,35.90
2023-05-21T14:50:21.794Z,35.52
2023-05-21T14:52:52.566Z,35.66
2023-05-21T14:55:23.529Z,35.75
2023-05-21T14:57:54.255Z,35.68
2023-05-21T15:00:24.976Z,35.59
2023-05-21T15:02:57.313Z,35.38
2023-05-21T15:05:29.721Z,35.25
2023-05-21T15:08:00.650Z,35.28
2023-05-21T15:10:31.465Z,35.51
2023-05-21T15:13:02.248Z,35.38
2023-05-21T15:15:33.168Z,35.64
2023-05-21T15:18:04.243Z,35.37
2023-05-21T15:20:34.999Z,35.27
2023-05-21T15:23:15.854Z,35.41
2023-05-21T15:25:47.874Z,35.28
2023-05-21T15:28:18.716Z,35.14
2023-05-21T15:30:49.653Z,35.30
2023-05-21T15:33:20.451Z,35.15
2023-05-21T15:35:51.406Z,35.30
2023-05-21T15:38:22.325Z,35.37
2023-05-21T15:40:53.177Z,35.09
2023-05-21T15:43:23.867Z,35.05
2023-05-21T15:45:54.658Z,35.10
2023-05-21T15:48:25.394Z,34.92
2023-05-21T15:50:56.533Z,34.84
2023-05-21T15:53:27.282Z,34.97
2023-05-21T15:55:58.291Z,35.00
2023-05-21T15:58:29.068Z,34.95
2023-05-21T16:01:00.165Z,34.95
2023-05-21T16:03:31.126Z,34.90
2023-05-21T16:06:01.960Z,34.86
2023-05-21T16:08:32.843Z,34.80
2023-05-21T16:11:03.642Z,34.87
2023-05-21T16:13:34.542Z,34.84
2023-05-21T16:16:05.584Z,34.94
2023-05-21T16:18:36.364Z,34.96
2023-05-21T16:21:07.423Z,34.88
2023-05-21T16:23:38.963Z,34.95
2023-05-21T16:26:10.234Z,34.83
2023-05-21T16:28:41.046Z,34.89
2023-05-21T16:31:12.962Z,34.96
2023-05-21T16:33:43.761Z,34.92
2023-05-21T16:36:15.814Z,34.86
2023-05-21T16:38:48.254Z,34.79
2023-05-21T16:41:19.254Z,34.73
2023-05-21T16:43:50.014Z,34.81
2023-05-21T16:46:21.092Z,34.70
2023-05-21T16:48:51.956Z,34.79
2023-05-21T16:51:22.740Z,34.77
2023-05-21T16:53:53.554Z,34.67
2023-05-21T16:56:24.326Z,34.69
2023-05-21T16:58:55.074Z,34.65
2023-05-21T17:01:25.976Z,34.68
2023-05-21T17:03:57.043Z,34.71
2023-05-21T17:06:27.952Z,34.70
2023-05-21T17:08:58.822Z,34.73
2023-05-21T17:11:29.651Z,34.75
2023-05-21T17:14:00.478Z,34.87
2023-05-21T17:16:31.385Z,34.93
2023-05-21T17:19:02.237Z,34.96
2023-05-21T17:21:33.096Z,34.99
2023-05-21T17:24:03.890Z,35.02
2023-05-21T17:26:35.017Z,35.01
2023-05-21T17:29:05.877Z,35.09
2023-05-21T17:31:36.748Z,35.08
2023-05-21T17:34:07.619Z,35.04
2023-05-21T17:36:38.621Z,34.97
2023-05-21T17:39:09.294Z,35.06
2023-05-21T17:41:40.565Z,35.22
2023-05-21T17:44:11.538Z,35.11
2023-05-21T17:46:42.347Z,35.20
2023-05-21T17:49:13.376Z,35.27
2023-05-21T17:51:44.606Z,35.30
2023-05-21T17:54:16.175Z,35.26
2023-05-21T17:56:46.916Z,35.31
2023-05-21T17:59:17.771Z,35.28
2023-05-21T18:01:48.623Z,35.31
2023-05-21T18:04:19.722Z,35.38
2023-05-21T18:06:51.654Z,35.52
2023-05-21T18:09:22.390Z,35.43
2023-05-21T18:11:53.566Z,35.51
2023-05-21T18:14:24.354Z,35.70
2023-05-21T18:16:55.527Z,35.76
2023-05-21T18:19:26.907Z,35.78
2023-05-21T18:21:57.868Z,35.77
2023-05-21T18:24:28.704Z,35.90
2023-05-21T18:26:59.697Z,36.06
2023-05-21T18:29:30.460Z,36.09
2023-05-21T18:32:01.452Z,36.17
2023-05-21T18:34:32.541Z,36.16
2023-05-21T18:37:03.391Z,36.11
2023-05-21T18:39:34.119Z,36.42
2023-05-21T18:42:12.795Z,36.41
2023-05-21T18:44:46.079Z,36.52
2023-05-21T18:47:17.014Z,36.60
2023-05-21T18:49:47.850Z,36.63
2023-05-21T18:52:18.676Z,36.59
2023-05-21T18:54:49.471Z,36.65
2023-05-21T18:57:20.577Z,36.75
2023-05-21T18:59:51.430Z,36.92
2023-05-21T19:02:22.498Z,36.99
2023-05-21T19:04:53.359Z,37.04
2023-05-21T19:07:24.186Z,37.13
2023-05-21T19:09:55.017Z,37.30
2023-05-21T19:12:25.891Z,37.34
2023-05-21T19:14:56.751Z,37.41
2023-05-21T19:17:27.965Z,37.50
2023-05-21T19:19:58.673Z,37.64
2023-05-21T19:22:29.571Z,37.78
2023-05-21T19:25:00.830Z,37.82
2023-05-21T19:27:31.968Z,38.09
2023-05-21T19:30:02.770Z,37.99
2023-05-21T19:32:33.510Z,38.11
2023-05-21T19:35:05.657Z,38.24
2023-05-21T19:37:36.528Z,38.36
2023-05-21T19:40:09.659Z,38.38
2023-05-21T19:42:40.992Z,38.52
2023-05-21T19:45:13.450Z,38.58
2023-05-21T19:47:44.323Z,38.58
2023-05-21T19:50:15.142Z,38.68
2023-05-21T19:52:45.926Z,38.81
2023-05-21T19:55:20.469Z,38.97
2023-05-21T19:57:51.648Z,39.07
2023-05-21T20:00:22.673Z,39.17
2023-05-21T20:02:54.174Z,39.09
2023-05-21T20:05:25.078Z,39.16
2023-05-21T20:07:56.079Z,39.22
2023-05-21T20:10:28.246Z,39.28
2023-05-21T20:12:59.007Z,39.25
2023-05-21T20:15:30.023Z,39.33
2023-05-21T20:18:01.090Z,39.46
2023-05-21T20:20:34.714Z,39.44
2023-05-21T20:23:05.646Z,39.47
2023-05-21T20:25:36.537Z,39.62
2023-05-21T20:28:08.227Z,39.60
2023-05-21T20:30:53.637Z,39.70
2023-05-21T20:33:25.330Z,39.78
2023-05-21T20:35:56.192Z,39.94
2023-05-21T20:38:27.112Z,39.96
2023-05-21T20:40:57.994Z,40.04
2023-05-21T20:43:28.822Z,40.02
2023-05-21T20:46:00.584Z,40.09
2023-05-21T20:48:31.970Z,40.17
2023-05-21T20:51:04.738Z,40.29
2023-05-21T20:53:35.645Z,40.42
2023-05-21T20:56:08.297Z,40.46
2023-05-21T20:58:40.085Z,40.41
2023-05-21T21:01:11.105Z,40.48
2023-05-21T21:03:44.013Z,40.67
2023-05-21T21:06:16.257Z,40.72
2023-05-21T21:08:50.409Z,40.66
2023-05-21T21:11:21.978Z,40.83
2023-05-21T21:13:52.895Z,40.79
2023-05-21T21:16:23.784Z,40.82
2023-05-21T21:18:54.602Z,40.91
2023-05-21T21:21:25.457Z,40.97
2023-05-21T21:23:56.277Z,40.98
2023-05-21T21:26:27.400Z,41.00
2023-05-21T21:28:59.636Z,41.13
2023-05-21T21:31:30.622Z,41.17
2023-05-21T21:34:01.495Z,41.18
2023-05-21T21:36:32.515Z,41.20
2023-05-21T21:39:03.362Z,41.26
2023-05-21T21:41:34.269Z,41.42
2023-05-21T21:44:05.127Z,41.34
2023-05-21T21:46:35.989Z,41.37
2023-05-21T21:49:06.840Z,41.43
2023-05-21T21:51:38.117Z,41.60
2023-05-21T21:54:09.010Z,41.53
2023-05-21T21:56:39.948Z,41.65
2023-05-21T21:59:10.786Z,41.74
2023-05-21T22:01:41.800Z,41.79
2023-05-21T22:04:12.827Z,41.84
2023-05-21T22:06:45.450Z,41.86
2023-05-21T22:09:17.173Z,41.90
2023-05-21T22:11:47.994Z,41.87
2023-05-21T22:14:19.587Z,41.99
2023-05-21T22:16:53.250Z,41.98
2023-05-21T22:19:24.409Z,41.95
2023-05-21T22:21:55.452Z,42.21
2023-05-21T22:27:01.419Z,42.31
2023-05-21T22:29:32.175Z,42.19
2023-05-21T22:32:03.042Z,42.34
2023-05-21T22:34:33.898Z,42.44
2023-05-21T22:37:04.896Z,42.50
2023-05-21T22:39:36.050Z,42.53
2023-05-21T22:42:07.406Z,42.53
2023-05-21T22:44:38.263Z,42.59
2023-05-21T22:47:10.216Z,42.69
2023-05-21T22:49:41.229Z,42.78
2023-05-21T22:52:12.243Z,42.72
2023-05-21T22:54:43.292Z,42.84
2023-05-21T22:57:14.121Z,42.80
2023-05-21T22:59:45.087Z,42.84
2023-05-21T23:02:16.192Z,42.88
2023-05-21T23:04:48.486Z,43.02
2023-05-21T23:07:19.431Z,42.93
2023-05-21T23:09:51.873Z,43.10
2023-05-21T23:12:22.764Z,43.07
2023-05-21T23:14:53.624Z,43.05
2023-05-21T23:17:24.552Z,43.20
2023-05-21T23:19:56.336Z,43.21
2023-05-21T23:22:27.191Z,43.16
2023-05-21T23:24:58.300Z,43.28
2023-05-21T23:27:29.338Z,43.26
2023-05-21T23:30:00.262Z,43.27
2023-05-21T23:32:31.152Z,43.46
2023-05-21T23:35:02.044Z,43.51
2023-05-21T23:37:32.816Z,43.57
2023-05-21T23:40:03.907Z,43.45
2023-05-21T23:42:34.744Z,43.50
2023-05-21T23:45:05.874Z,43.61
2023-05-21T23:47:36.919Z,43.63
2023-05-21T23:50:09.383Z,43.52
2023-05-21T23:52:41.643Z,43.64
2023-05-21T23:55:14.931Z,43.63
2023-05-21T23:57:45.870Z,43.81
